createdAt,value
2023-05-08T00:03:31.383Z,11.73
2023-05-08T00:05:59.298Z,10.10
2023-05-08T00:08:26.897Z,11.50
2023-05-08T00:10:54.356Z,10.23
2023-05-08T00:13:24.014Z,12.40
2023-05-08T00:15:51.895Z,11.68
2023-05-08T00:18:19.082Z,10.80
2023-05-08T00:20:46.853Z,11.32
2023-05-08T00:23:13.898Z,11.40
2023-05-08T00:25:41.657Z,12.05
2023-05-08T00:28:10.809Z,12.35
2023-05-08T00:30:38.570Z,10.15
2023-05-08T00:33:06.361Z,11.27
2023-05-08T00:35:33.811Z,12.10
2023-05-08T00:38:02.877Z,10.70
2023-05-08T00:40:31.048Z,11.73
2023-05-08T00:43:00.508Z,10.77
2023-05-08T00:45:35.010Z,11.50
2023-05-08T00:48:04.394Z,11.35
2023-05-08T00:50:33.093Z,11.02
2023-05-08T00:53:05.114Z,11.35
2023-05-08T00:55:33.412Z,10.60
2023-05-08T00:58:00.563Z,12.48
2023-05-08T01:00:29.461Z,10.93
2023-05-08T01:02:57.414Z,12.25
2023-05-08T01:05:30.502Z,12.00
2023-05-08T01:07:58.225Z,13.23
2023-05-08T01:10:34.916Z,12.23
2023-05-08T01:13:29.476Z,12.18
2023-05-08T01:16:20.538Z,14.50
2023-05-08T01:19:23.376Z,14.90
2023-05-08T01:22:16.393Z,11.93
2023-05-08T01:24:50.766Z,11.73
2023-05-08T01:27:46.398Z,11.90
2023-05-08T01:30:28.036Z,12.98
2023-05-08T01:33:08.233Z,13.88
2023-05-08T01:35:51.186Z,15.95
2023-05-08T01:38:52.493Z,15.68
2023-05-08T01:41:28.180Z,14.30
2023-05-08T01:44:16.828Z,14.32
2023-05-08T01:46:51.281Z,13.85
2023-05-08T01:49:26.837Z,12.32
2023-05-08T01:52:01.108Z,13.63
2023-05-08T01:54:34.454Z,11.65
2023-05-08T01:57:04.543Z,14.13
2023-05-08T01:59:35.192Z,12.77
2023-05-08T02:02:04.571Z,15.05
2023-05-08T02:04:37.288Z,13.70
2023-05-08T02:07:08.109Z,13.18
2023-05-08T02:09:35.762Z,12.65
2023-05-08T02:12:07.058Z,12.10
2023-05-08T02:14:36.424Z,13.95
2023-05-08T02:17:06.574Z,13.27
2023-05-08T02:19:36.538Z,13.68
2023-05-08T02:22:06.120Z,12.60
2023-05-08T02:24:35.846Z,14.38
2023-05-08T02:27:04.486Z,11.18
2023-05-08T02:29:32.733Z,13.32
2023-05-08T02:32:02.472Z,13.95
2023-05-08T02:34:31.616Z,13.13
2023-05-08T02:37:00.519Z,10.20
2023-05-08T02:39:31.291Z,11.70
2023-05-08T02:41:58.793Z,12.25
2023-05-08T02:44:26.235Z,12.82
2023-05-08T02:47:06.955Z,12.25
2023-05-08T02:49:46.847Z,12.32
2023-05-08T02:52:24.248Z,11.65
2023-05-08T02:55:16.035Z,13.25
2023-05-08T02:58:02.720Z,10.73
2023-05-08T03:00:34.033Z,11.57
2023-05-08T03:03:14.664Z,13.35
2023-05-08T03:05:50.224Z,12.48
2023-05-08T03:08:24.362Z,17.25
2023-05-08T03:10:54.259Z,17.25
2023-05-08T03:13:22.487Z,13.70
2023-05-08T03:16:03.715Z,8.93
2023-05-08T03:18:40.540Z,9.95
2023-05-08T03:21:13.352Z,10.52
2023-05-08T03:23:46.313Z,10.18
2023-05-08T03:26:22.133Z,10.68
2023-05-08T03:28:51.510Z,12.48
2023-05-08T03:31:24.216Z,15.32
2023-05-08T03:33:58.344Z,15.15
2023-05-08T03:36:29.123Z,13.93
2023-05-08T03:38:59.955Z,13.48
2023-05-08T03:41:28.082Z,12.52
2023-05-08T03:43:57.774Z,15.18
2023-05-08T03:46:27.499Z,13.95
2023-05-08T03:49:01.323Z,14.93
2023-05-08T03:51:32.681Z,17.88
2023-05-08T03:54:01.628Z,14.30
2023-05-08T03:56:32.956Z,13.68
2023-05-08T03:59:15.638Z,15.30
2023-05-08T04:01:56.266Z,15.75
2023-05-08T04:04:46.216Z,17.67
2023-05-08T04:07:32.286Z,15.10
2023-05-08T04:10:28.471Z,15.18
2023-05-08T04:13:08.575Z,15.35
2023-05-08T04:15:51.953Z,14.55
2023-05-08T04:18:29.367Z,13.38
2023-05-08T04:21:02.705Z,15.85
2023-05-08T04:23:35.083Z,17.25
2023-05-08T04:26:05.645Z,17.30
2023-05-08T04:28:35.506Z,14.00
2023-05-08T04:31:06.206Z,16.45
2023-05-08T04:33:35.978Z,15.00
2023-05-08T04:36:05.226Z,14.38
2023-05-08T04:38:39.966Z,13.60
2023-05-08T04:41:09.284Z,15.57
2023-05-08T04:43:38.935Z,13.38
2023-05-08T04:46:09.544Z,17.67
2023-05-08T04:48:37.485Z,14.73
2023-05-08T04:51:05.005Z,14.70
2023-05-08T04:53:33.527Z,13.48
2023-05-08T04:56:03.707Z,14.07
2023-05-08T04:58:30.925Z,12.30
2023-05-08T05:01:04.058Z,15.02
2023-05-08T05:03:33.834Z,14.35
2023-05-08T05:06:03.683Z,14.75
2023-05-08T05:08:32.603Z,14.30
2023-05-08T05:11:02.415Z,13.57
2023-05-08T05:13:31.850Z,13.02
2023-05-08T05:16:03.493Z,12.23
2023-05-08T05:18:32.592Z,12.50
2023-05-08T05:21:05.018Z,11.38
2023-05-08T05:23:33.537Z,13.35
2023-05-08T05:26:04.919Z,13.38
2023-05-08T05:28:36.142Z,11.73
2023-05-08T05:31:05.333Z,11.90
2023-05-08T05:33:34.094Z,10.65
2023-05-08T05:36:04.041Z,13.52
2023-05-08T05:38:32.975Z,12.45
2023-05-08T05:41:06.163Z,11.98
2023-05-08T05:46:10.376Z,11.48
2023-05-08T05:48:44.101Z,11.63
2023-05-08T05:51:13.072Z,12.15
2023-05-08T05:53:45.370Z,15.15
2023-05-08T05:56:14.160Z,11.43
2023-05-08T05:58:47.787Z,10.93
2023-05-08T06:01:16.140Z,10.57
2023-05-08T06:03:45.321Z,9.57
2023-05-08T06:06:15.469Z,11.75
2023-05-08T06:08:46.101Z,9.23
2023-05-08T06:11:14.351Z,9.80
2023-05-08T06:13:42.467Z,10.60
2023-05-08T06:16:11.469Z,11.10
2023-05-08T06:18:42.443Z,11.18
2023-05-08T06:21:12.485Z,8.85
2023-05-08T06:23:44.037Z,10.80
2023-05-08T06:26:12.481Z,9.07
2023-05-08T06:28:43.850Z,11.05
2023-05-08T06:31:13.170Z,8.18
2023-05-08T06:33:41.609Z,10.82
2023-05-08T06:36:11.650Z,10.23
2023-05-08T06:38:39.864Z,11.23
2023-05-08T06:41:07.617Z,9.40
2023-05-08T06:43:35.524Z,7.50
2023-05-08T06:46:09.660Z,9.60
2023-05-08T06:48:41.993Z,9.30
2023-05-08T06:51:13.745Z,9.73
2023-05-08T06:53:45.681Z,7.88
2023-05-08T06:56:13.273Z,12.77
2023-05-08T06:58:41.651Z,8.95
2023-05-08T07:01:10.114Z,10.05
2023-05-08T07:03:42.136Z,7.15
2023-05-08T07:06:12.728Z,10.98
2023-05-08T07:08:41.289Z,8.65
2023-05-08T07:11:10.863Z,9.63
2023-05-08T07:13:39.013Z,11.02
2023-05-08T07:16:12.236Z,9.13
2023-05-08T07:18:45.411Z,11.18
2023-05-08T07:21:16.317Z,10.23
2023-05-08T07:23:45.347Z,9.32
2023-05-08T07:26:14.338Z,8.00
2023-05-08T07:28:52.116Z,8.95
2023-05-08T07:31:21.305Z,8.07
2023-05-08T07:33:54.639Z,7.75
2023-05-08T07:36:23.511Z,8.05
2023-05-08T07:38:50.975Z,8.98
2023-05-08T07:41:18.852Z,8.38
2023-05-08T07:43:46.501Z,9.25
2023-05-08T07:46:18.277Z,8.15
2023-05-08T07:48:46.079Z,6.93
2023-05-08T07:51:15.388Z,9.05
2023-05-08T07:53:44.964Z,9.50
2023-05-08T07:56:12.779Z,7.45
2023-05-08T07:58:43.098Z,6.60
2023-05-08T08:01:10.567Z,6.85
2023-05-08T08:03:38.208Z,6.35
2023-05-08T08:06:06.323Z,6.97
2023-05-08T08:08:34.589Z,6.88
2023-05-08T08:11:03.834Z,6.55
2023-05-08T08:13:36.185Z,7.45
2023-05-08T08:16:05.349Z,6.53
2023-05-08T08:18:38.621Z,6.93
2023-05-08T08:21:09.653Z,6.65
2023-05-08T08:23:37.869Z,6.60
2023-05-08T08:26:09.128Z,5.65
2023-05-08T08:28:36.882Z,7.18
2023-05-08T08:31:05.495Z,6.07
2023-05-08T08:33:32.903Z,5.93
2023-05-08T08:36:00.027Z,6.70
2023-05-08T08:38:31.275Z,6.10
2023-05-08T08:41:00.028Z,6.20
2023-05-08T08:43:30.452Z,5.50
2023-05-08T08:45:59.855Z,5.72
2023-05-08T08:48:31.226Z,7.07
2023-05-08T08:51:05.833Z,5.93
2023-05-08T08:53:44.361Z,6.57
2023-05-08T08:56:18.076Z,6.10
2023-05-08T08:58:52.114Z,5.65
2023-05-08T09:01:21.714Z,5.07
2023-05-08T09:03:52.722Z,5.75
2023-05-08T09:06:22.244Z,6.78
2023-05-08T09:08:55.208Z,5.63
2023-05-08T09:13:51.883Z,4.65
2023-05-08T09:16:18.942Z,5.85
2023-05-08T09:18:53.322Z,7.07
2023-05-08T09:21:23.952Z,6.43
2023-05-08T09:24:06.298Z,4.28
2023-05-08T09:26:37.171Z,6.05
2023-05-08T09:29:11.954Z,5.43
2023-05-08T09:31:42.373Z,4.53
2023-05-08T09:34:30.496Z,5.28
2023-05-08T09:37:11.976Z,5.95
2023-05-08T09:39:43.747Z,5.45
2023-05-08T09:42:15.208Z,5.47
2023-05-08T09:44:51.407Z,5.10
2023-05-08T09:47:25.678Z,6.65
2023-05-08T09:50:09.509Z,8.25
2023-05-08T09:52:38.475Z,6.03
2023-05-08T09:55:11.551Z,5.20
2023-05-08T09:57:41.158Z,4.93
2023-05-08T10:00:11.705Z,4.45
2023-05-08T10:02:55.397Z,4.68
2023-05-08T10:05:28.228Z,4.45
2023-05-08T10:07:56.411Z,4.82
2023-05-08T10:10:31.132Z,4.70
2023-05-08T10:12:59.207Z,5.65
2023-05-08T10:15:34.568Z,4.25
2023-05-08T10:18:08.022Z,4.40
2023-05-08T10:20:42.603Z,4.30
2023-05-08T10:23:23.940Z,5.05
2023-05-08T10:26:02.247Z,3.83
2023-05-08T10:28:37.555Z,4.88
2023-05-08T10:31:08.368Z,7.22
2023-05-08T10:33:42.328Z,5.10
2023-05-08T10:36:13.684Z,4.47
2023-05-08T10:38:44.800Z,5.32
2023-05-08T10:41:20.436Z,5.05
2023-05-08T10:43:52.409Z,4.93
2023-05-08T10:46:30.830Z,4.25
2023-05-08T10:49:08.102Z,5.00
2023-05-08T10:51:57.800Z,4.05
2023-05-08T10:54:29.291Z,4.45
2023-05-08T10:57:11.907Z,4.85
2023-05-08T10:59:51.394Z,4.32
2023-05-08T11:02:38.198Z,4.35
2023-05-08T11:05:24.723Z,4.30
2023-05-08T11:07:57.946Z,6.45
2023-05-08T11:10:33.700Z,6.13
2023-05-08T11:13:01.885Z,4.75
2023-05-08T11:15:44.239Z,4.80
2023-05-08T11:18:12.436Z,5.07
2023-05-08T11:20:57.832Z,4.18
2023-05-08T11:23:36.919Z,5.30
2023-05-08T11:26:08.204Z,4.75
2023-05-08T11:28:41.359Z,4.82
2023-05-08T11:31:12.555Z,4.57
2023-05-08T11:33:41.952Z,4.55
2023-05-08T11:36:22.354Z,5.50
2023-05-08T11:39:13.015Z,4.22
2023-05-08T11:41:40.262Z,5.03
2023-05-08T11:44:22.466Z,4.88
2023-05-08T11:46:52.298Z,4.47
2023-05-08T11:49:29.001Z,3.70
2023-05-08T11:51:58.969Z,5.63
2023-05-08T11:54:30.600Z,4.72
2023-05-08T11:57:00.471Z,5.57
2023-05-08T11:59:28.851Z,3.50
2023-05-08T12:02:08.687Z,3.58
2023-05-08T12:04:48.254Z,4.43
2023-05-08T12:07:16.855Z,3.60
2023-05-08T12:09:49.238Z,4.07
2023-05-08T12:12:17.402Z,3.90
2023-05-08T12:14:49.848Z,4.05
2023-05-08T12:17:21.982Z,3.40
2023-05-08T12:19:54.915Z,5.00
2023-05-08T12:22:25.102Z,5.53
2023-05-08T12:24:55.068Z,34.25
2023-05-08T12:27:22.578Z,4.75
2023-05-08T12:29:52.796Z,3.42
2023-05-08T12:32:21.842Z,5.53
2023-05-08T12:34:49.792Z,3.95
2023-05-08T12:37:25.315Z,4.22
2023-05-08T12:39:56.248Z,4.22
2023-05-08T12:42:41.746Z,3.80
2023-05-08T12:45:10.422Z,4.88
2023-05-08T12:47:40.816Z,3.97
2023-05-08T12:50:12.747Z,5.30
2023-05-08T12:52:40.991Z,5.57
2023-05-08T12:55:29.372Z,3.97
2023-05-08T12:58:14.767Z,6.05
2023-05-08T13:00:49.659Z,3.42
2023-05-08T13:03:29.782Z,3.63
2023-05-08T13:05:59.446Z,3.70
2023-05-08T13:08:34.481Z,4.47
2023-05-08T13:11:04.331Z,5.10
2023-05-08T13:13:34.087Z,3.17
2023-05-08T13:16:06.557Z,4.70
2023-05-08T13:18:36.904Z,5.80
2023-05-08T13:21:05.169Z,3.35
2023-05-08T13:23:35.018Z,4.35
2023-05-08T13:26:03.916Z,3.20
2023-05-08T13:28:31.542Z,6.53
2023-05-08T13:31:00.159Z,3.58
2023-05-08T13:33:31.930Z,3.38
2023-05-08T13:36:00.740Z,3.90
2023-05-08T13:38:28.769Z,2.92
2023-05-08T13:40:56.993Z,3.35
2023-05-08T13:43:29.473Z,3.60
2023-05-08T13:45:56.363Z,3.67
2023-05-08T13:48:24.037Z,3.35
2023-05-08T13:50:52.090Z,3.35
2023-05-08T13:53:20.181Z,2.88
2023-05-08T13:55:47.575Z,3.30
2023-05-08T13:58:15.038Z,3.63
2023-05-08T14:00:42.637Z,3.42
2023-05-08T14:03:10.171Z,3.53
2023-05-08T14:05:37.306Z,2.92
2023-05-08T14:08:05.251Z,3.70
2023-05-08T14:10:32.778Z,2.72
2023-05-08T14:13:00.620Z,4.50
2023-05-08T14:15:36.468Z,3.83
2023-05-08T14:18:05.207Z,3.05
2023-05-08T14:20:32.558Z,5.40
2023-05-08T14:23:00.341Z,2.50
2023-05-08T14:25:28.376Z,2.70
2023-05-08T14:27:56.131Z,2.88
2023-05-08T14:30:23.313Z,3.30
2023-05-08T14:32:51.109Z,2.70
2023-05-08T14:35:18.470Z,3.15
2023-05-08T14:37:48.518Z,3.28
2023-05-08T14:40:15.922Z,4.03
2023-05-08T14:42:44.901Z,5.50
2023-05-08T14:45:12.824Z,2.97
2023-05-08T14:47:40.766Z,2.85
2023-05-08T14:50:12.685Z,3.28
2023-05-08T14:52:40.402Z,4.10
2023-05-08T14:55:08.843Z,2.50
2023-05-08T14:57:36.795Z,2.65
2023-05-08T15:00:08.582Z,2.28
2023-05-08T15:02:35.935Z,2.50
2023-05-08T15:05:08.255Z,3.00
2023-05-08T15:07:40.737Z,5.93
2023-05-08T15:10:10.157Z,3.15
2023-05-08T15:12:38.058Z,3.05
2023-05-08T15:15:06.568Z,3.03
2023-05-08T15:17:36.782Z,7.82
2023-05-08T15:20:06.530Z,2.78
2023-05-08T15:22:38.924Z,3.08
2023-05-08T15:25:07.504Z,4.63
2023-05-08T15:27:35.662Z,3.00
2023-05-08T15:30:04.034Z,2.58
2023-05-08T15:32:32.370Z,3.47
2023-05-08T15:35:00.264Z,2.50
2023-05-08T15:37:28.644Z,2.38
2023-05-08T15:39:56.765Z,3.78
2023-05-08T15:42:27.418Z,2.72
2023-05-08T15:44:59.215Z,2.13
2023-05-08T15:47:27.864Z,2.35
2023-05-08T15:49:56.198Z,2.15
2023-05-08T15:52:24.857Z,6.05
2023-05-08T15:54:52.293Z,3.20
2023-05-08T15:57:20.256Z,2.83
2023-05-08T15:59:48.359Z,2.78
2023-05-08T16:02:16.017Z,2.72
2023-05-08T16:04:44.109Z,2.60
2023-05-08T16:07:12.177Z,4.38
2023-05-08T16:09:40.036Z,3.08
2023-05-08T16:12:08.208Z,2.58
2023-05-08T16:14:36.690Z,3.28
2023-05-08T16:17:04.705Z,2.65
2023-05-08T16:19:38.186Z,2.38
2023-05-08T16:22:07.104Z,3.28
2023-05-08T16:24:34.295Z,3.17
2023-05-08T16:27:02.409Z,2.83
2023-05-08T16:29:30.213Z,2.60
2023-05-08T16:31:58.073Z,2.58
2023-05-08T16:34:26.455Z,3.05
2023-05-08T16:36:54.134Z,2.20
2023-05-08T16:39:25.677Z,2.90
2023-05-08T16:41:53.324Z,3.80
2023-05-08T16:44:21.870Z,3.33
2023-05-08T16:46:49.673Z,4.82
2023-05-08T16:49:17.318Z,4.95
2023-05-08T16:51:45.624Z,4.35
2023-05-08T16:54:13.690Z,4.88
2023-05-08T16:56:42.680Z,3.60
2023-05-08T16:59:10.673Z,4.55
2023-05-08T17:01:44.593Z,5.00
2023-05-08T17:04:12.916Z,4.07
2023-05-08T17:06:41.282Z,4.22
2023-05-08T17:09:10.083Z,5.28
2023-05-08T17:11:41.676Z,5.00
2023-05-08T17:14:10.383Z,3.58
2023-05-08T17:16:42.594Z,3.90
2023-05-08T17:19:11.563Z,6.60
2023-05-08T17:21:47.980Z,5.63
2023-05-08T17:24:17.507Z,4.85
2023-05-08T17:26:49.990Z,6.22
2023-05-08T17:29:18.483Z,3.90
2023-05-08T17:31:47.407Z,5.75
2023-05-08T17:34:16.647Z,4.53
2023-05-08T17:36:44.972Z,7.07
2023-05-08T17:39:13.355Z,4.03
2023-05-08T17:41:41.683Z,5.45
2023-05-08T17:44:12.886Z,5.43
2023-05-08T17:46:41.948Z,4.97
2023-05-08T17:49:19.577Z,4.75
2023-05-08T17:51:49.248Z,8.65
2023-05-08T17:54:17.621Z,7.57
2023-05-08T17:56:57.840Z,5.88
2023-05-08T17:59:27.755Z,5.55
2023-05-08T18:01:56.325Z,5.07
2023-05-08T18:04:31.767Z,8.93
2023-05-08T18:07:02.294Z,7.28
2023-05-08T18:09:31.510Z,8.82
2023-05-08T18:12:03.358Z,8.20
2023-05-08T18:14:33.340Z,5.53
2023-05-08T18:17:02.796Z,6.03
2023-05-08T18:19:34.842Z,4.43
2023-05-08T18:22:05.481Z,5.00
2023-05-08T18:24:37.063Z,5.97
2023-05-08T18:27:07.922Z,4.63
2023-05-08T18:29:38.788Z,6.30
2023-05-08T18:32:13.835Z,6.30
2023-05-08T18:34:45.520Z,4.13
2023-05-08T18:37:13.891Z,6.15
2023-05-08T18:39:43.428Z,6.10
2023-05-08T18:42:15.066Z,6.40
2023-05-08T18:44:45.927Z,5.43
2023-05-08T18:47:14.835Z,5.30
2023-05-08T18:49:47.324Z,4.80
2023-05-08T18:54:47.075Z,5.53
2023-05-08T18:57:16.851Z,6.78
2023-05-08T18:59:45.316Z,5.35
2023-05-08T19:02:14.469Z,8.35
2023-05-08T19:04:43.664Z,9.45
2023-05-08T19:07:12.630Z,6.15
2023-05-08T19:09:44.223Z,6.68
2023-05-08T19:12:15.660Z,7.38
2023-05-08T19:14:46.524Z,5.80
2023-05-08T19:17:14.678Z,7.65
2023-05-08T19:19:46.907Z,4.65
2023-05-08T19:22:15.943Z,5.72
2023-05-08T19:24:48.786Z,7.70
2023-05-08T19:27:18.037Z,6.53
2023-05-08T19:29:46.783Z,6.65
2023-05-08T19:32:15.851Z,7.82
2023-05-08T19:34:48.047Z,6.72
2023-05-08T19:37:16.586Z,5.80
2023-05-08T19:39:47.391Z,5.30
2023-05-08T19:42:18.625Z,5.63
2023-05-08T19:44:48.888Z,6.55
2023-05-08T19:47:22.299Z,7.70
2023-05-08T19:49:51.303Z,5.60
2023-05-08T19:52:21.497Z,5.65
2023-05-08T19:54:50.958Z,6.40
2023-05-08T19:57:24.000Z,6.90
2023-05-08T19:59:53.064Z,7.18
2023-05-08T20:02:21.810Z,6.10
2023-05-08T20:05:14.575Z,9.27
2023-05-08T20:07:38.522Z,5.75
2023-05-08T20:10:07.412Z,7.85
2023-05-08T20:12:37.903Z,6.55
2023-05-08T20:15:06.995Z,8.35
2023-05-08T20:17:34.598Z,5.75
2023-05-08T20:20:03.824Z,7.28
2023-05-08T20:22:31.442Z,6.43
2023-05-08T20:25:00.494Z,9.25
2023-05-08T20:27:30.328Z,4.93
2023-05-08T20:30:03.156Z,6.38
2023-05-08T20:32:31.478Z,6.93
2023-05-08T20:35:02.690Z,5.32
2023-05-08T20:37:31.666Z,6.65
2023-05-08T20:40:00.459Z,7.95
2023-05-08T20:42:31.315Z,6.38
2023-05-08T20:45:01.944Z,6.03
2023-05-08T20:47:34.232Z,8.07
2023-05-08T20:50:05.305Z,7.30
2023-05-08T20:52:38.459Z,8.27
2023-05-08T20:55:09.324Z,7.03
2023-05-08T20:57:40.435Z,8.52
2023-05-08T21:00:13.249Z,5.95
2023-05-08T21:02:46.965Z,7.13
2023-05-08T21:05:19.181Z,8.63
2023-05-08T21:07:47.670Z,7.35
2023-05-08T21:10:16.915Z,6.60
2023-05-08T21:12:47.269Z,11.23
2023-05-08T21:15:16.287Z,5.22
2023-05-08T21:17:46.909Z,5.38
2023-05-08T21:20:18.433Z,7.07
2023-05-08T21:22:49.929Z,7.63
2023-05-08T21:25:33.839Z,5.82
2023-05-08T21:28:06.712Z,6.53
2023-05-08T21:30:38.479Z,7.38
2023-05-08T21:33:14.289Z,6.40
2023-05-08T21:35:44.150Z,7.80
2023-05-08T21:38:12.609Z,8.30
2023-05-08T21:40:46.225Z,7.60
2023-05-08T21:43:14.414Z,9.32
2023-05-08T21:45:48.169Z,10.07
2023-05-08T21:48:19.445Z,13.93
2023-05-08T21:50:54.720Z,8.80
2023-05-08T21:53:26.472Z,11.65
2023-05-08T21:56:03.740Z,12.68
2023-05-08T21:58:37.962Z,12.25
2023-05-08T22:01:09.784Z,8.73
2023-05-08T22:03:38.582Z,6.50
2023-05-08T22:06:08.123Z,7.95
2023-05-08T22:08:39.626Z,7.63
2023-05-08T22:11:08.584Z,8.48
2023-05-08T22:13:37.451Z,8.85
2023-05-08T22:16:10.643Z,8.48
2023-05-08T22:18:42.474Z,9.32
2023-05-08T22:21:14.551Z,11.57
2023-05-08T22:23:43.188Z,8.32
2023-05-08T22:26:12.150Z,8.98
2023-05-08T22:28:41.038Z,9.73
2023-05-08T22:31:09.808Z,9.10
2023-05-08T22:33:37.442Z,8.88
2023-05-08T22:36:05.977Z,8.60
2023-05-08T22:38:39.954Z,10.93
2023-05-08T22:41:09.139Z,8.55
2023-05-08T22:43:38.411Z,9.70
2023-05-08T22:46:06.563Z,7.65
2023-05-08T22:48:35.160Z,9.18
2023-05-08T22:51:03.649Z,8.98
2023-05-08T22:53:32.610Z,9.57
2023-05-08T22:56:00.902Z,8.95
2023-05-08T22:58:31.521Z,8.70
2023-05-08T23:01:00.233Z,7.53
2023-05-08T23:03:35.395Z,6.57
2023-05-08T23:06:03.728Z,7.28
2023-05-08T23:08:32.416Z,7.63
2023-05-08T23:11:00.278Z,6.20
2023-05-08T23:13:32.168Z,7.38
2023-05-08T23:16:00.389Z,6.30
2023-05-08T23:18:34.572Z,7.35
2023-05-08T23:21:08.090Z,5.57
2023-05-08T23:23:35.678Z,6.13
2023-05-08T23:26:05.658Z,6.82
2023-05-08T23:28:37.185Z,6.20
2023-05-08T23:31:05.111Z,7.97
2023-05-08T23:33:32.736Z,8.93
2023-05-08T23:36:01.150Z,6.00
2023-05-08T23:38:29.110Z,6.13
2023-05-08T23:40:57.136Z,8.77
2023-05-08T23:43:28.071Z,7.10
2023-05-08T23:45:56.289Z,5.75
2023-05-08T23:48:25.978Z,6.72
2023-05-08T23:50:53.812Z,7.28
2023-05-08T23:53:22.320Z,7.18
2023-05-08T23:55:51.043Z,6.38
2023-05-08T23:58:21.893Z,5.28
